Time,TemperatureF,DewpointF,PressureIn,WindDirection,WindDirectionDegrees,WindSpeedMPH,WindSpeedGustMPH,Humidity,HourlyPrecipIn,Conditions,Clouds,dailyrainin,SolarRadiationWatts/m^2,SoftwareType,DateUTC
2013-08-22 00:03:00,57.5,53.0,29.88,South,184,0.0,0.0,85,0.00,,,0.00,0,HR-IXPWINDi_r2_v1.2.,2013-08-22 07:03:00,
2013-08-22 00:08:00,57.0,52.5,29.88,South,184,1.0,1.0,85,0.00,,,0.00,0,HR-IXPWINDi_r2_v1.2.,2013-08-22 07:08:00,
2013-08-22 00:13:00,57.0,52.8,29.87,South,184,0.0,1.0,86,0.00,,,0.00,0,HR-IXPWINDi_r2_v1.2.,2013-08-22 07:13:00,
2013-08-22 00:18:00,57.2,53.3,29.87,South,184,0.0,1.0,87,0.00,,,0.00,0,HR-IXPWINDi_r2_v1.2.,2013-08-22 07:18:00,
2013-08-22 00:23:00,57.3,53.4,29.87,South,184,0.0,1.0,87,0.00,,,0.00,0,HR-IXPWINDi_r2_v1.2.,2013-08-22 07:23:00,
2013-08-22 00:29:00,56.8,52.9,29.87,South,184,0.0,0.0,87,0.00,,,0.00,0,HR-IXPWINDi_r2_v1.2.,2013-08-22 07:29:00,
2013-08-22 00:34:00,56.7,52.8,29.88,South,184,0.0,0.0,87,0.00,,,0.00,0,HR-IXPWINDi_r2_v1.2.,2013-08-22 07:34:00,
2013-08-22 00:39:00,56.5,52.6,29.88,South,184,0.0,0.0,87,0.00,,,0.00,0,HR-IXPWINDi_r2_v1.2.,2013-08-22 07:39:00,
2013-08-22 00:44:00,56.2,52.3,29.88,South,184,0.0,1.0,87,0.00,,,0.00,0,HR-IXPWINDi_r2_v1.2.,2013-08-22 07:44:00,
2013-08-22 00:49:00,56.1,52.2,29.87,South,184,0.0,1.0,87,0.00,,,0.00,0,HR-IXPWINDi_r2_v1.2.,2013-08-22 07:49:00,
2013-08-22 00:55:00,56.0,52.4,29.87,South,184,0.0,1.0,88,0.00,,,0.00,0,HR-IXPWINDi_r2_v1.2.,2013-08-22 07:55:00,
2013-08-22 01:00:00,56.0,52.4,29.87,South,184,0.0,1.0,88,0.00,,,0.00,0,HR-IXPWINDi_r2_v1.2.,2013-08-22 08:00:00,
2013-08-22 01:05:00,55.9,52.3,29.87,South,184,0.0,0.0,88,0.00,,,0.00,0,HR-IXPWINDi_r2_v1.2.,2013-08-22 08:05:00,
2013-08-22 01:10:00,55.8,52.2,29.87,South,184,0.0,1.0,88,0.00,,,0.00,0,HR-IXPWINDi_r2_v1.2.,2013-08-22 08:10:00,
2013-08-22 01:15:00,55.7,52.1,29.87,South,184,1.0,1.0,88,0.00,,,0.00,0,HR-IXPWINDi_r2_v1.2.,2013-08-22 08:15:00,
2013-08-22 01:21:00,55.8,52.2,29.87,South,184,0.0,1.0,88,0.00,,,0.00,0,HR-IXPWINDi_r2_v1.2.,2013-08-22 08:21:00,
2013-08-22 01:26:00,55.7,52.1,29.87,South,184,0.0,1.0,88,0.00,,,0.00,0,HR-IXPWINDi_r2_v1.2.,2013-08-22 08:26:00,
2013-08-22 01:31:00,55.4,51.5,29.87,South,184,0.0,1.0,87,0.00,,,0.00,0,HR-IXPWINDi_r2_v1.2.,2013-08-22 08:31:00,
2013-08-22 01:36:00,55.4,51.5,29.87,South,184,0.0,1.0,87,0.00,,,0.00,0,HR-IXPWINDi_r2_v1.2.,2013-08-22 08:36:00,
2013-08-22 01:42:00,55.3,51.4,29.87,South,184,0.0,1.0,87,0.00,,,0.00,0,HR-IXPWINDi_r2_v1.2.,2013-08-22 08:42:00,
2013-08-22 01:47:00,55.3,51.4,29.87,South,184,0.0,0.0,87,0.00,,,0.00,0,HR-IXPWINDi_r2_v1.2.,2013-08-22 08:47:00,
2013-08-22 01:52:00,55.1,51.2,29.87,South,184,0.0,1.0,87,0.00,,,0.00,0,HR-IXPWINDi_r2_v1.2.,2013-08-22 08:52:00,
2013-08-22 01:57:00,54.9,51.3,29.87,South,184,0.0,1.0,88,0.00,,,0.00,0,HR-IXPWINDi_r2_v1.2.,2013-08-22 08:57:00,
2013-08-22 02:03:00,54.8,51.2,29.87,South,184,0.0,1.0,88,0.00,,,0.00,0,HR-IXPWINDi_r2_v1.2.,2013-08-22 09:03:00,
2013-08-22 02:08:00,55.0,51.1,29.87,South,184,0.0,2.0,87,0.00,,,0.00,0,HR-IXPWINDi_r2_v1.2.,2013-08-22 09:08:00,
2013-08-22 02:13:00,54.8,50.9,29.87,South,184,0.0,2.0,87,0.00,,,0.00,0,HR-IXPWINDi_r2_v1.2.,2013-08-22 09:13:00,
2013-08-22 02:18:00,54.8,51.2,29.87,South,184,0.0,1.0,88,0.00,,,0.00,0,HR-IXPWINDi_r2_v1.2.,2013-08-22 09:18:00,
2013-08-22 02:23:00,54.9,51.3,29.87,South,184,1.0,2.0,88,0.00,,,0.00,0,HR-IXPWINDi_r2_v1.2.,2013-08-22 09:23:00,
2013-08-22 06:00:00,52.4,48.3,29.87,South,190,0.0,1.0,86,0.00,,,0.00,0,HR-IXPWINDi_r2_v1.2.,2013-08-22 13:00:00,
2013-08-22 06:05:00,52.2,48.4,29.87,South,190,0.0,2.0,87,0.00,,,0.00,0,HR-IXPWINDi_r2_v1.2.,2013-08-22 13:05:00,
2013-08-22 06:10:00,52.2,48.4,29.87,South,190,0.0,2.0,87,0.00,,,0.00,0,HR-IXPWINDi_r2_v1.2.,2013-08-22 13:10:00,
2013-08-22 06:16:00,52.0,48.2,29.87,South,190,0.0,1.0,87,0.00,,,0.00,0,HR-IXPWINDi_r2_v1.2.,2013-08-22 13:16:00,
2013-08-22 06:21:00,52.0,48.2,29.87,South,190,0.0,1.0,87,0.00,,,0.00,0,HR-IXPWINDi_r2_v1.2.,2013-08-22 13:21:00,
2013-08-22 06:26:00,52.2,48.1,29.88,South,190,0.0,1.0,86,0.00,,,0.00,0,HR-IXPWINDi_r2_v1.2.,2013-08-22 13:26:00,
2013-08-22 06:31:00,52.2,47.8,29.88,South,190,0.0,1.0,85,0.00,,,0.00,5,HR-IXPWINDi_r2_v1.2.,2013-08-22 13:31:00,
2013-08-22 06:36:00,51.8,47.7,29.88,South,190,0.0,1.0,86,0.00,,,0.00,7,HR-IXPWINDi_r2_v1.2.,2013-08-22 13:36:00,
2013-08-22 06:41:00,52.2,48.1,29.88,South,190,0.0,2.0,86,0.00,,,0.00,9,HR-IXPWINDi_r2_v1.2.,2013-08-22 13:41:00,
2013-08-22 06:47:00,52.5,48.1,29.87,South,190,0.0,2.0,85,0.00,,,0.00,11,HR-IXPWINDi_r2_v1.2.,2013-08-22 13:47:00,
2013-08-22 06:52:00,52.5,48.4,29.87,South,190,0.0,2.0,86,0.00,,,0.00,12,HR-IXPWINDi_r2_v1.2.,2013-08-22 13:52:00,
2013-08-22 06:57:00,52.6,48.5,29.88,South,190,0.0,2.0,86,0.00,,,0.00,25,HR-IXPWINDi_r2_v1.2.,2013-08-22 13:57:00,
2013-08-22 07:02:00,52.9,48.5,29.88,South,190,0.0,1.0,85,0.00,,,0.00,67,HR-IXPWINDi_r2_v1.2.,2013-08-22 14:02:00,
2013-08-22 07:07:00,53.5,49.0,29.88,South,190,1.0,2.0,85,0.00,,,0.00,72,HR-IXPWINDi_r2_v1.2.,2013-08-22 14:07:00,
2013-08-22 07:12:00,54.1,49.6,29.88,South,190,1.0,2.0,85,0.00,,,0.00,74,HR-IXPWINDi_r2_v1.2.,2013-08-22 14:12:00,
2013-08-22 07:17:00,55.4,50.3,29.88,South,190,0.0,2.0,83,0.00,,,0.00,84,HR-IXPWINDi_r2_v1.2.,2013-08-22 14:17:00,
2013-08-22 07:22:00,57.2,50.0,29.87,South,190,0.0,2.0,77,0.00,,,0.00,104,HR-IXPWINDi_r2_v1.2.,2013-08-22 14:22:00,
2013-08-22 07:27:00,59.0,49.9,29.88,South,190,0.0,2.0,72,0.00,,,0.00,116,HR-IXPWINDi_r2_v1.2.,2013-08-22 14:27:00,
2013-08-22 07:33:00,61.1,50.0,29.87,South,190,0.0,2.0,67,0.00,,,0.00,132,HR-IXPWINDi_r2_v1.2.,2013-08-22 14:33:00,
2013-08-22 07:38:00,62.6,50.2,29.87,South,190,0.0,2.0,64,0.00,,,0.00,153,HR-IXPWINDi_r2_v1.2.,2013-08-22 14:38:00,
2013-08-22 07:43:00,64.2,50.4,29.87,South,190,0.0,2.0,61,0.00,,,0.00,172,HR-IXPWINDi_r2_v1.2.,2013-08-22 14:43:00,
2013-08-22 07:48:00,65.4,51.1,29.88,South,190,1.0,1.0,60,0.00,,,0.00,190,HR-IXPWINDi_r2_v1.2.,2013-08-22 14:48:00,
2013-08-22 07:53:00,66.2,51.9,29.87,South,190,0.0,1.0,60,0.00,,,0.00,202,HR-IXPWINDi_r2_v1.2.,2013-08-22 14:53:00,
2013-08-22 07:58:00,67.8,52.9,29.87,South,190,0.0,3.0,59,0.00,,,0.00,211,HR-IXPWINDi_r2_v1.2.,2013-08-22 14:58:00,
2013-08-22 08:03:00,68.7,53.7,29.87,South,190,0.0,3.0,59,0.00,,,0.00,213,HR-IXPWINDi_r2_v1.2.,2013-08-22 15:03:00,
2013-08-22 08:08:00,68.5,52.6,29.87,South,190,0.0,1.0,57,0.00,,,0.00,213,HR-IXPWINDi_r2_v1.2.,2013-08-22 15:08:00,
2013-08-22 08:14:00,68.3,52.9,29.87,South,190,0.0,1.0,58,0.00,,,0.00,213,HR-IXPWINDi_r2_v1.2.,2013-08-22 15:14:00,
2013-08-22 08:19:00,68.6,52.7,29.88,South,190,2.0,2.0,57,0.00,,,0.00,213,HR-IXPWINDi_r2_v1.2.,2013-08-22 15:19:00,
2013-08-22 08:24:00,69.6,52.7,29.87,South,190,0.0,2.0,55,0.00,,,0.00,220,HR-IXPWINDi_r2_v1.2.,2013-08-22 15:24:00,
2013-08-22 08:29:00,70.7,52.7,29.87,South,190,1.0,1.0,53,0.00,,,0.00,236,HR-IXPWINDi_r2_v1.2.,2013-08-22 15:29:00,
2013-08-22 08:35:00,71.5,53.4,29.87,South,173,1.0,1.0,53,0.00,,,0.00,264,HR-IXPWINDi_r2_v1.2.,2013-08-22 15:35:00,
2013-08-22 08:40:00,72.5,52.8,29.87,South,173,0.0,1.0,50,0.00,,,0.00,302,HR-IXPWINDi_r2_v1.2.,2013-08-22 15:40:00,
2013-08-22 08:45:00,72.6,52.8,29.87,South,173,0.0,1.0,50,0.00,,,0.00,345,HR-IXPWINDi_r2_v1.2.,2013-08-22 15:45:00,
2013-08-22 08:50:00,73.3,53.5,29.87,South,173,0.0,1.0,50,0.00,,,0.00,385,HR-IXPWINDi_r2_v1.2.,2013-08-22 15:50:00,
2013-08-22 08:56:00,74.1,52.0,29.87,South,173,2.0,3.0,46,0.00,,,0.00,420,HR-IXPWINDi_r2_v1.2.,2013-08-22 15:56:00,
2013-08-22 09:01:00,75.0,53.9,29.87,South,173,0.0,3.0,48,0.00,,,0.00,450,HR-IXPWINDi_r2_v1.2.,2013-08-22 16:01:00,
2013-08-22 09:06:00,75.6,53.9,29.86,South,171,2.0,2.0,47,0.00,,,0.00,476,HR-IXPWINDi_r2_v1.2.,2013-08-22 16:06:00,
2013-08-22 09:11:00,76.2,55.6,29.86,SSW,196,0.0,3.0,49,0.00,,,0.00,496,HR-IXPWINDi_r2_v1.2.,2013-08-22 16:11:00,
2013-08-22 09:16:00,76.8,55.6,29.87,ESE,115,1.0,3.0,48,0.00,,,0.00,513,HR-IXPWINDi_r2_v1.2.,2013-08-22 16:16:00,
2013-08-22 09:21:00,77.9,56.6,29.87,South,170,2.0,3.0,48,0.00,,,0.00,529,HR-IXPWINDi_r2_v1.2.,2013-08-22 16:21:00,
2013-08-22 09:27:00,78.3,57.0,29.86,East,96,0.0,2.0,48,0.00,,,0.00,543,HR-IXPWINDi_r2_v1.2.,2013-08-22 16:27:00,
2013-08-22 09:32:00,79.2,57.2,29.86,SSE,159,2.0,3.0,47,0.00,,,0.00,557,HR-IXPWINDi_r2_v1.2.,2013-08-22 16:32:00,
2013-08-22 09:37:00,79.9,57.8,29.86,SSE,157,1.0,3.0,47,0.00,,,0.00,573,HR-IXPWINDi_r2_v1.2.,2013-08-22 16:37:00,
2013-08-22 09:42:00,80.2,57.5,29.86,SE,142,0.0,3.0,46,0.00,,,0.00,587,HR-IXPWINDi_r2_v1.2.,2013-08-22 16:42:00,
2013-08-22 09:47:00,80.2,57.5,29.87,SSE,165,2.0,3.0,46,0.00,,,0.00,599,HR-IXPWINDi_r2_v1.2.,2013-08-22 16:47:00,
2013-08-22 09:52:00,80.5,57.8,29.87,SSE,154,1.0,3.0,46,0.00,,,0.00,617,HR-IXPWINDi_r2_v1.2.,2013-08-22 16:52:00,
2013-08-22 09:58:00,80.9,58.7,29.87,SSE,150,2.0,3.0,47,0.00,,,0.00,629,HR-IXPWINDi_r2_v1.2.,2013-08-22 16:58:00,
2013-08-22 10:03:00,81.5,58.1,29.87,SSE,155,0.0,4.0,45,0.00,,,0.00,643,HR-IXPWINDi_r2_v1.2.,2013-08-22 17:03:00,
2013-08-22 10:08:00,82.7,57.9,29.87,SSE,166,1.0,4.0,43,0.00,,,0.00,659,HR-IXPWINDi_r2_v1.2.,2013-08-22 17:08:00,
2013-08-22 10:14:00,83.3,57.8,29.87,South,184,0.0,3.0,42,0.00,,,0.00,671,HR-IXPWINDi_r2_v1.2.,2013-08-22 17:14:00,
2013-08-22 10:19:00,83.5,55.9,29.87,SSE,167,4.0,4.0,39,0.00,,,0.00,682,HR-IXPWINDi_r2_v1.2.,2013-08-22 17:19:00,
2013-08-22 10:24:00,83.0,55.5,29.87,South,176,3.0,4.0,39,0.00,,,0.00,686,HR-IXPWINDi_r2_v1.2.,2013-08-22 17:24:00,
2013-08-22 10:29:00,83.1,57.6,29.87,South,171,2.0,6.0,42,0.00,,,0.00,673,HR-IXPWINDi_r2_v1.2.,2013-08-22 17:29:00,
2013-08-22 10:34:00,82.4,56.3,29.87,SSE,159,3.0,8.0,41,0.00,,,0.00,647,HR-IXPWINDi_r2_v1.2.,2013-08-22 17:34:00,
2013-08-22 10:40:00,83.0,59.4,29.87,South,184,0.0,8.0,45,0.00,,,0.00,615,HR-IXPWINDi_r2_v1.2.,2013-08-22 17:40:00,
2013-08-22 10:45:00,84.8,59.8,29.87,South,171,4.0,5.0,43,0.00,,,0.00,592,HR-IXPWINDi_r2_v1.2.,2013-08-22 17:45:00,
2013-08-22 10:50:00,84.8,60.4,29.87,South,169,2.0,5.0,44,0.00,,,0.00,584,HR-IXPWINDi_r2_v1.2.,2013-08-22 17:50:00,
2013-08-22 10:56:00,84.6,60.2,29.87,South,185,1.0,6.0,44,0.00,,,0.00,594,HR-IXPWINDi_r2_v1.2.,2013-08-22 17:56:00,
2013-08-22 11:01:00,85.1,60.7,29.87,South,175,2.0,6.0,44,0.00,,,0.00,626,HR-IXPWINDi_r2_v1.2.,2013-08-22 18:01:00,
2013-08-22 11:06:00,85.5,61.7,29.87,South,189,2.0,6.0,45,0.00,,,0.00,663,HR-IXPWINDi_r2_v1.2.,2013-08-22 18:06:00,
2013-08-22 11:11:00,85.0,60.6,29.87,South,186,3.0,6.0,44,0.00,,,0.00,714,HR-IXPWINDi_r2_v1.2.,2013-08-22 18:11:00,
2013-08-22 11:16:00,83.7,58.1,29.87,South,171,0.0,7.0,42,0.00,,,0.00,747,HR-IXPWINDi_r2_v1.2.,2013-08-22 18:16:00,
2013-08-22 11:21:00,83.5,57.3,29.87,South,180,4.0,7.0,41,0.00,,,0.00,780,HR-IXPWINDi_r2_v1.2.,2013-08-22 18:21:00,
2013-08-22 11:26:00,83.8,58.2,29.86,South,173,5.0,7.0,42,0.00,,,0.00,807,HR-IXPWINDi_r2_v1.2.,2013-08-22 18:26:00,
2013-08-22 11:31:00,85.1,58.7,29.86,South,189,2.0,6.0,41,0.00,,,0.00,814,HR-IXPWINDi_r2_v1.2.,2013-08-22 18:31:00,
2013-08-22 11:36:00,87.7,61.7,29.86,South,171,1.0,6.0,42,0.00,,,0.00,821,HR-IXPWINDi_r2_v1.2.,2013-08-22 18:36:00,
2013-08-22 11:41:00,88.8,60.6,29.86,SSE,148,5.0,8.0,39,0.00,,,0.00,831,HR-IXPWINDi_r2_v1.2.,2013-08-22 18:41:00,
2013-08-22 11:47:00,87.0,61.1,29.86,South,173,4.0,8.0,42,0.00,,,0.00,835,HR-IXPWINDi_r2_v1.2.,2013-08-22 18:47:00,
2013-08-22 11:52:00,88.4,60.3,29.86,South,178,4.0,9.0,39,0.00,,,0.00,842,HR-IXPWINDi_r2_v1.2.,2013-08-22 18:52:00,
2013-08-22 11:57:00,88.9,59.2,29.86,SSE,167,2.0,9.0,37,0.00,,,0.00,849,HR-IXPWINDi_r2_v1.2.,2013-08-22 18:57:00,
2013-08-22 12:02:00,89.2,58.7,29.86,South,186,2.0,6.0,36,0.00,,,0.00,854,HR-IXPWINDi_r2_v1.2.,2013-08-22 19:02:00,
2013-08-22 12:07:00,89.6,59.8,29.86,SSE,153,4.0,6.0,37,0.00,,,0.00,858,HR-IXPWINDi_r2_v1.2.,2013-08-22 19:07:00,
2013-08-22 12:13:00,88.5,58.9,29.86,South,180,1.0,7.0,37,0.00,,,0.00,863,HR-IXPWINDi_r2_v1.2.,2013-08-22 19:13:00,
2013-08-22 12:18:00,89.8,58.5,29.86,SSW,211,2.0,7.0,35,0.00,,,0.00,865,HR-IXPWINDi_r2_v1.2.,2013-08-22 19:18:00,
2013-08-22 12:23:00,88.6,59.0,29.85,SSW,195,4.0,8.0,37,0.00,,,0.00,868,HR-IXPWINDi_r2_v1.2.,2013-08-22 19:23:00,
2013-08-22 12:28:00,88.4,60.3,29.85,SSE,167,5.0,8.0,39,0.00,,,0.00,840,HR-IXPWINDi_r2_v1.2.,2013-08-22 19:28:00,
2013-08-22 12:34:00,90.1,61.0,29.85,SSE,163,1.0,6.0,38,0.00,,,0.00,795,HR-IXPWINDi_r2_v1.2.,2013-08-22 19:34:00,
2013-08-22 12:39:00,90.4,59.8,29.86,SSE,162,6.0,8.0,36,0.00,,,0.00,754,HR-IXPWINDi_r2_v1.2.,2013-08-22 19:39:00,
2013-08-22 12:44:00,90.7,59.3,29.85,SSW,196,7.0,8.0,35,0.00,,,0.00,737,HR-IXPWINDi_r2_v1.2.,2013-08-22 19:44:00,
2013-08-22 12:49:00,87.5,57.2,29.86,SSE,165,1.0,7.0,36,0.00,,,0.00,751,HR-IXPWINDi_r2_v1.2.,2013-08-22 19:49:00,
2013-08-22 12:55:00,88.1,57.0,29.85,SSW,198,3.0,7.0,35,0.00,,,0.00,793,HR-IXPWINDi_r2_v1.2.,2013-08-22 19:55:00,
2013-08-22 13:00:00,87.0,55.2,29.85,West,261,3.0,9.0,34,0.00,,,0.00,840,HR-IXPWINDi_r2_v1.2.,2013-08-22 20:00:00,
2013-08-22 13:05:00,86.9,55.1,29.85,South,173,2.0,9.0,34,0.00,,,0.00,870,HR-IXPWINDi_r2_v1.2.,2013-08-22 20:05:00,
2013-08-22 13:10:00,88.6,56.6,29.85,SSW,194,5.0,8.0,34,0.00,,,0.00,874,HR-IXPWINDi_r2_v1.2.,2013-08-22 20:10:00,
2013-08-22 13:15:00,88.6,54.9,29.85,South,188,5.0,8.0,32,0.00,,,0.00,874,HR-IXPWINDi_r2_v1.2.,2013-08-22 20:15:00,
2013-08-22 13:21:00,89.8,56.0,29.85,South,169,0.0,8.0,32,0.00,,,0.00,868,HR-IXPWINDi_r2_v1.2.,2013-08-22 20:21:00,
2013-08-22 13:26:00,91.1,58.0,29.85,ESE,120,4.0,8.0,33,0.00,,,0.00,867,HR-IXPWINDi_r2_v1.2.,2013-08-22 20:26:00,
2013-08-22 13:31:00,91.9,57.8,29.85,SSE,147,1.0,8.0,32,0.00,,,0.00,865,HR-IXPWINDi_r2_v1.2.,2013-08-22 20:31:00,
2013-08-22 13:36:00,91.7,54.0,29.85,South,185,1.0,7.0,28,0.00,,,0.00,865,HR-IXPWINDi_r2_v1.2.,2013-08-22 20:36:00,
2013-08-22 13:41:00,91.1,53.4,29.85,SSE,156,3.0,7.0,28,0.00,,,0.00,861,HR-IXPWINDi_r2_v1.2.,2013-08-22 20:41:00,
2013-08-22 13:46:00,90.3,50.7,29.85,SSW,194,0.0,7.0,26,0.00,,,0.00,858,HR-IXPWINDi_r2_v1.2.,2013-08-22 20:46:00,
2013-08-22 13:52:00,90.5,52.9,29.84,South,190,8.0,8.0,28,0.00,,,0.00,851,HR-IXPWINDi_r2_v1.2.,2013-08-22 20:52:00,
2013-08-22 13:57:00,91.5,55.7,29.84,South,174,2.0,8.0,30,0.00,,,0.00,844,HR-IXPWINDi_r2_v1.2.,2013-08-22 20:57:00,
2013-08-22 14:02:00,93.0,54.1,29.84,SSW,194,7.0,8.0,27,0.00,,,0.00,838,HR-IXPWINDi_r2_v1.2.,2013-08-22 21:02:00,
2013-08-22 14:07:00,92.7,54.8,29.84,SSE,168,6.0,8.0,28,0.00,,,0.00,835,HR-IXPWINDi_r2_v1.2.,2013-08-22 21:07:00,
2013-08-22 14:13:00,90.9,54.2,29.84,SW,227,2.0,8.0,29,0.00,,,0.00,828,HR-IXPWINDi_r2_v1.2.,2013-08-22 21:13:00,
2013-08-22 14:18:00,90.6,57.5,29.84,SSW,196,4.0,8.0,33,0.00,,,0.00,821,HR-IXPWINDi_r2_v1.2.,2013-08-22 21:18:00,
2013-08-22 14:23:00,89.3,51.9,29.83,SW,236,2.0,7.0,28,0.00,,,0.00,812,HR-IXPWINDi_r2_v1.2.,2013-08-22 21:23:00,
2013-08-22 14:28:00,90.9,56.9,29.83,South,191,2.0,9.0,32,0.00,,,0.00,809,HR-IXPWINDi_r2_v1.2.,2013-08-22 21:28:00,
2013-08-22 14:34:00,90.5,54.8,29.83,South,180,4.0,9.0,30,0.00,,,0.00,798,HR-IXPWINDi_r2_v1.2.,2013-08-22 21:34:00,
2013-08-22 14:39:00,91.3,53.6,29.83,South,190,6.0,9.0,28,0.00,,,0.00,788,HR-IXPWINDi_r2_v1.2.,2013-08-22 21:39:00,
2013-08-22 14:44:00,89.6,52.2,29.82,SSE,159,4.0,10.0,28,0.00,,,0.00,780,HR-IXPWINDi_r2_v1.2.,2013-08-22 21:44:00,
2013-08-22 14:49:00,89.3,50.9,29.82,South,187,9.0,10.0,27,0.00,,,0.00,772,HR-IXPWINDi_r2_v1.2.,2013-08-22 21:49:00,
2013-08-22 14:55:00,88.9,49.6,29.82,South,170,3.0,9.0,26,0.00,,,0.00,761,HR-IXPWINDi_r2_v1.2.,2013-08-22 21:55:00,
2013-08-22 15:00:00,89.6,51.2,29.81,SSW,202,7.0,10.0,27,0.00,,,0.00,751,HR-IXPWINDi_r2_v1.2.,2013-08-22 22:00:00,
2013-08-22 15:05:00,89.3,50.9,29.81,SSW,196,4.0,10.0,27,0.00,,,0.00,737,HR-IXPWINDi_r2_v1.2.,2013-08-22 22:05:00,
2013-08-22 15:11:00,90.5,52.9,29.81,South,170,6.0,11.0,28,0.00,,,0.00,726,HR-IXPWINDi_r2_v1.2.,2013-08-22 22:11:00,
2013-08-22 15:16:00,90.8,52.2,29.80,SSE,155,5.0,11.0,27,0.00,,,0.00,712,HR-IXPWINDi_r2_v1.2.,2013-08-22 22:16:00,
2013-08-22 15:21:00,90.3,50.7,29.80,SW,225,2.0,9.0,26,0.00,,,0.00,703,HR-IXPWINDi_r2_v1.2.,2013-08-22 22:21:00,
2013-08-22 15:26:00,90.4,51.9,29.80,SSW,204,2.0,10.0,27,0.00,,,0.00,691,HR-IXPWINDi_r2_v1.2.,2013-08-22 22:26:00,
2013-08-22 15:32:00,89.0,49.6,29.80,West,263,2.0,10.0,26,0.00,,,0.00,679,HR-IXPWINDi_r2_v1.2.,2013-08-22 22:32:00,
2013-08-22 15:37:00,89.2,53.7,29.80,South,179,2.0,8.0,30,0.00,,,0.00,664,HR-IXPWINDi_r2_v1.2.,2013-08-22 22:37:00,
2013-08-22 15:42:00,90.5,54.8,29.80,SSE,156,6.0,9.0,30,0.00,,,0.00,650,HR-IXPWINDi_r2_v1.2.,2013-08-22 22:42:00,
2013-08-22 15:47:00,89.7,54.1,29.80,SSE,167,3.0,9.0,30,0.00,,,0.00,633,HR-IXPWINDi_r2_v1.2.,2013-08-22 22:47:00,
2013-08-22 15:52:00,88.4,53.9,29.80,South,174,3.0,9.0,31,0.00,,,0.00,624,HR-IXPWINDi_r2_v1.2.,2013-08-22 22:52:00,
2013-08-22 15:57:00,89.9,56.1,29.79,SSW,198,1.0,9.0,32,0.00,,,0.00,610,HR-IXPWINDi_r2_v1.2.,2013-08-22 22:57:00,
2013-08-22 16:02:00,89.5,57.4,29.79,South,190,1.0,7.0,34,0.00,,,0.00,594,HR-IXPWINDi_r2_v1.2.,2013-08-22 23:02:00,
2013-08-22 16:07:00,89.4,56.5,29.79,South,188,8.0,8.0,33,0.00,,,0.00,582,HR-IXPWINDi_r2_v1.2.,2013-08-22 23:07:00,
2013-08-22 16:13:00,88.4,55.6,29.79,South,178,2.0,8.0,33,0.00,,,0.00,568,HR-IXPWINDi_r2_v1.2.,2013-08-22 23:13:00,
2013-08-22 16:18:00,88.8,56.8,29.79,South,190,0.0,5.0,34,0.00,,,0.00,552,HR-IXPWINDi_r2_v1.2.,2013-08-22 23:18:00,
2013-08-22 16:23:00,89.6,56.7,29.79,ESE,112,2.0,5.0,33,0.00,,,0.00,538,HR-IXPWINDi_r2_v1.2.,2013-08-22 23:23:00,
2013-08-22 16:29:00,89.2,58.7,29.79,SE,144,2.0,4.0,36,0.00,,,0.00,519,HR-IXPWINDi_r2_v1.2.,2013-08-22 23:29:00,
2013-08-22 16:34:00,89.0,58.6,29.79,ESE,115,0.0,5.0,36,0.00,,,0.00,506,HR-IXPWINDi_r2_v1.2.,2013-08-22 23:34:00,
2013-08-22 16:39:00,88.6,59.0,29.79,South,182,1.0,5.0,37,0.00,,,0.00,490,HR-IXPWINDi_r2_v1.2.,2013-08-22 23:39:00,
2013-08-22 16:44:00,88.3,59.4,29.78,SSE,161,0.0,4.0,38,0.00,,,0.00,475,HR-IXPWINDi_r2_v1.2.,2013-08-22 23:44:00,
2013-08-22 16:50:00,87.9,56.8,29.78,South,176,2.0,5.0,35,0.00,,,0.00,461,HR-IXPWINDi_r2_v1.2.,2013-08-22 23:50:00,
2013-08-22 16:55:00,87.1,57.6,29.78,South,176,4.0,5.0,37,0.00,,,0.00,443,HR-IXPWINDi_r2_v1.2.,2013-08-22 23:55:00,
2013-08-22 17:00:00,85.9,56.6,29.78,SSE,161,2.0,6.0,37,0.00,,,0.00,427,HR-IXPWINDi_r2_v1.2.,2013-08-23 00:00:00,
2013-08-22 17:05:00,85.3,57.5,29.78,South,183,3.0,6.0,39,0.00,,,0.00,408,HR-IXPWINDi_r2_v1.2.,2013-08-23 00:05:00,
2013-08-22 17:10:00,84.1,57.1,29.78,South,189,4.0,7.0,40,0.00,,,0.00,390,HR-IXPWINDi_r2_v1.2.,2013-08-23 00:10:00,
2013-08-22 17:16:00,84.7,58.4,29.77,South,178,2.0,7.0,41,0.00,,,0.00,373,HR-IXPWINDi_r2_v1.2.,2013-08-23 00:16:00,
2013-08-22 17:21:00,84.9,59.9,29.77,South,180,2.0,5.0,43,0.00,,,0.00,357,HR-IXPWINDi_r2_v1.2.,2013-08-23 00:21:00,
2013-08-22 17:26:00,84.9,58.5,29.77,SSE,165,2.0,5.0,41,0.00,,,0.00,339,HR-IXPWINDi_r2_v1.2.,2013-08-23 00:26:00,
2013-08-22 17:31:00,84.8,58.5,29.77,South,179,5.0,5.0,41,0.00,,,0.00,323,HR-IXPWINDi_r2_v1.2.,2013-08-23 00:31:00,
2013-08-22 17:36:00,83.0,58.8,29.77,South,176,3.0,7.0,44,0.00,,,0.00,306,HR-IXPWINDi_r2_v1.2.,2013-08-23 00:36:00,
2013-08-22 17:42:00,81.8,57.7,29.77,West,261,4.0,7.0,44,0.00,,,0.00,290,HR-IXPWINDi_r2_v1.2.,2013-08-23 00:42:00,
2013-08-22 17:47:00,79.9,57.2,29.77,SSW,206,2.0,8.0,46,0.00,,,0.00,274,HR-IXPWINDi_r2_v1.2.,2013-08-23 00:47:00,
2013-08-22 17:52:00,79.7,58.2,29.77,South,182,2.0,8.0,48,0.00,,,0.00,257,HR-IXPWINDi_r2_v1.2.,2013-08-23 00:52:00,
2013-08-22 17:57:00,78.6,58.4,29.77,South,173,5.0,7.0,50,0.00,,,0.00,35,HR-IXPWINDi_r2_v1.2.,2013-08-23 00:57:00,
2013-08-22 18:02:00,77.0,58.5,29.77,West,265,5.0,7.0,53,0.00,,,0.00,28,HR-IXPWINDi_r2_v1.2.,2013-08-23 01:02:00,
2013-08-22 18:07:00,76.0,59.1,29.77,WSW,238,0.0,7.0,56,0.00,,,0.00,25,HR-IXPWINDi_r2_v1.2.,2013-08-23 01:07:00,
2013-08-22 18:13:00,75.2,58.4,29.77,South,186,1.0,7.0,56,0.00,,,0.00,25,HR-IXPWINDi_r2_v1.2.,2013-08-23 01:13:00,
2013-08-22 18:18:00,74.7,57.9,29.77,SSW,202,4.0,7.0,56,0.00,,,0.00,23,HR-IXPWINDi_r2_v1.2.,2013-08-23 01:18:00,
2013-08-22 18:23:00,74.2,57.9,29.77,WSW,258,1.0,6.0,57,0.00,,,0.00,23,HR-IXPWINDi_r2_v1.2.,2013-08-23 01:23:00,
2013-08-22 18:29:00,74.0,57.3,29.77,WNW,293,2.0,5.0,56,0.00,,,0.00,21,HR-IXPWINDi_r2_v1.2.,2013-08-23 01:29:00,
2013-08-22 18:34:00,73.8,57.6,29.77,SSW,207,2.0,6.0,57,0.00,,,0.00,21,HR-IXPWINDi_r2_v1.2.,2013-08-23 01:34:00,
2013-08-22 18:39:00,73.7,57.5,29.77,SSE,158,2.0,6.0,57,0.00,,,0.00,19,HR-IXPWINDi_r2_v1.2.,2013-08-23 01:39:00,
2013-08-22 18:44:00,73.6,57.9,29.77,SSE,158,1.0,5.0,58,0.00,,,0.00,18,HR-IXPWINDi_r2_v1.2.,2013-08-23 01:44:00,
2013-08-22 18:49:00,73.4,58.1,29.77,SSE,159,2.0,3.0,59,0.00,,,0.00,18,HR-IXPWINDi_r2_v1.2.,2013-08-23 01:49:00,
2013-08-22 18:55:00,73.0,58.2,29.77,South,181,1.0,4.0,60,0.00,,,0.00,16,HR-IXPWINDi_r2_v1.2.,2013-08-23 01:55:00,
2013-08-22 19:00:00,72.8,58.5,29.77,South,169,4.0,5.0,61,0.00,,,0.00,16,HR-IXPWINDi_r2_v1.2.,2013-08-23 02:00:00,
2013-08-22 19:05:00,72.4,58.1,29.77,South,177,2.0,5.0,61,0.00,,,0.00,14,HR-IXPWINDi_r2_v1.2.,2013-08-23 02:05:00,
2013-08-22 19:10:00,72.1,57.9,29.78,South,188,2.0,6.0,61,0.00,,,0.00,12,HR-IXPWINDi_r2_v1.2.,2013-08-23 02:10:00,
2013-08-22 19:15:00,71.7,57.9,29.78,South,188,1.0,6.0,62,0.00,,,0.00,11,HR-IXPWINDi_r2_v1.2.,2013-08-23 02:15:00,
2013-08-22 19:20:00,71.3,57.6,29.78,South,188,2.0,4.0,62,0.00,,,0.00,9,HR-IXPWINDi_r2_v1.2.,2013-08-23 02:20:00,
2013-08-22 19:26:00,70.9,58.1,29.78,South,186,0.0,4.0,64,0.00,,,0.00,7,HR-IXPWINDi_r2_v1.2.,2013-08-23 02:26:00,
2013-08-22 19:31:00,70.3,57.9,29.78,South,186,0.0,3.0,65,0.00,,,0.00,5,HR-IXPWINDi_r2_v1.2.,2013-08-23 02:31:00,
2013-08-22 19:36:00,70.0,57.6,29.78,South,186,0.0,3.0,65,0.00,,,0.00,0,HR-IXPWINDi_r2_v1.2.,2013-08-23 02:36:00,
2013-08-22 19:41:00,69.5,57.6,29.79,South,186,0.0,3.0,66,0.00,,,0.00,0,HR-IXPWINDi_r2_v1.2.,2013-08-23 02:41:00,
2013-08-22 19:46:00,69.2,57.7,29.79,South,186,0.0,0.0,67,0.00,,,0.00,0,HR-IXPWINDi_r2_v1.2.,2013-08-23 02:46:00,
2013-08-22 19:52:00,68.2,57.2,29.79,South,186,0.0,0.0,68,0.00,,,0.00,0,HR-IXPWINDi_r2_v1.2.,2013-08-23 02:52:00,
2013-08-22 19:57:00,67.6,57.8,29.79,South,186,0.0,0.0,71,0.00,,,0.00,0,HR-IXPWINDi_r2_v1.2.,2013-08-23 02:57:00,
2013-08-22 20:02:00,67.4,57.6,29.79,South,186,0.0,0.0,71,0.00,,,0.00,0,HR-IXPWINDi_r2_v1.2.,2013-08-23 03:02:00,
2013-08-22 20:07:00,67.2,57.0,29.79,South,186,0.0,0.0,70,0.00,,,0.00,0,HR-IXPWINDi_r2_v1.2.,2013-08-23 03:07:00,
2013-08-22 20:12:00,66.8,56.6,29.79,South,186,0.0,0.0,70,0.00,,,0.00,0,HR-IXPWINDi_r2_v1.2.,2013-08-23 03:12:00,
2013-08-22 20:18:00,66.4,57.0,29.80,South,186,0.0,0.0,72,0.00,,,0.00,0,HR-IXPWINDi_r2_v1.2.,2013-08-23 03:18:00,
2013-08-22 20:23:00,65.8,56.8,29.80,South,186,0.0,0.0,73,0.00,,,0.00,0,HR-IXPWINDi_r2_v1.2.,2013-08-23 03:23:00,
2013-08-22 20:28:00,65.0,56.4,29.80,South,186,0.0,0.0,74,0.00,,,0.00,0,HR-IXPWINDi_r2_v1.2.,2013-08-23 03:28:00,
2013-08-22 20:33:00,64.4,56.2,29.80,South,186,0.0,0.0,75,0.00,,,0.00,0,HR-IXPWINDi_r2_v1.2.,2013-08-23 03:33:00,
2013-08-22 20:38:00,64.1,56.0,29.80,South,186,0.0,0.0,75,0.00,,,0.00,0,HR-IXPWINDi_r2_v1.2.,2013-08-23 03:38:00,
2013-08-22 20:44:00,63.9,56.1,29.80,South,186,0.0,0.0,76,0.00,,,0.00,0,HR-IXPWINDi_r2_v1.2.,2013-08-23 03:44:00,
2013-08-22 20:49:00,63.6,56.2,29.81,South,186,0.0,0.0,77,0.00,,,0.00,0,HR-IXPWINDi_r2_v1.2.,2013-08-23 03:49:00,
2013-08-22 20:54:00,63.5,56.1,29.81,South,186,0.0,0.0,77,0.00,,,0.00,0,HR-IXPWINDi_r2_v1.2.,2013-08-23 03:54:00,
2013-08-22 20:59:00,63.2,55.8,29.81,South,186,0.0,0.0,77,0.00,,,0.00,0,HR-IXPWINDi_r2_v1.2.,2013-08-23 03:59:00,
2013-08-22 21:01:00,63.1,56.1,29.81,South,186,0.0,0.0,78,0.00,,,0.00,0,HR-IXPWINDi_r2_v1.2.,2013-08-23 04:01:00,
2013-08-22 21:06:00,62.7,55.7,29.81,South,186,0.0,0.0,78,0.00,,,0.00,0,HR-IXPWINDi_r2_v1.2.,2013-08-23 04:06:00,
2013-08-22 21:11:00,62.2,55.5,29.81,South,186,0.0,0.0,79,0.00,,,0.00,0,HR-IXPWINDi_r2_v1.2.,2013-08-23 04:11:00,
2013-08-22 21:16:00,62.0,55.7,29.82,South,186,0.0,0.0,80,0.00,,,0.00,0,HR-IXPWINDi_r2_v1.2.,2013-08-23 04:16:00,
2013-08-22 21:21:00,61.8,55.5,29.82,South,186,0.0,0.0,80,0.00,,,0.00,0,HR-IXPWINDi_r2_v1.2.,2013-08-23 04:21:00,
2013-08-22 21:27:00,61.4,55.1,29.82,South,186,0.0,0.0,80,0.00,,,0.00,0,HR-IXPWINDi_r2_v1.2.,2013-08-23 04:27:00,
2013-08-22 21:32:00,61.1,54.8,29.82,South,186,0.0,0.0,80,0.00,,,0.00,0,HR-IXPWINDi_r2_v1.2.,2013-08-23 04:32:00,
2013-08-22 21:37:00,61.0,55.1,29.82,South,186,0.0,0.0,81,0.00,,,0.00,0,HR-IXPWINDi_r2_v1.2.,2013-08-23 04:37:00,
2013-08-22 21:42:00,61.0,55.1,29.82,South,186,0.0,1.0,81,0.00,,,0.00,0,HR-IXPWINDi_r2_v1.2.,2013-08-23 04:42:00,
2013-08-22 21:47:00,60.8,54.9,29.82,South,186,0.0,1.0,81,0.00,,,0.00,0,HR-IXPWINDi_r2_v1.2.,2013-08-23 04:47:00,
2013-08-22 21:52:00,61.0,54.7,29.81,South,186,0.0,0.0,80,0.00,,,0.00,0,HR-IXPWINDi_r2_v1.2.,2013-08-23 04:52:00,
2013-08-22 21:57:00,60.6,54.3,29.82,South,186,0.0,0.0,80,0.00,,,0.00,0,HR-IXPWINDi_r2_v1.2.,2013-08-23 04:57:00,
2013-08-22 22:03:00,60.3,54.4,29.82,South,186,0.0,0.0,81,0.00,,,0.00,0,HR-IXPWINDi_r2_v1.2.,2013-08-23 05:03:00,
2013-08-22 22:08:00,59.7,53.8,29.82,South,186,0.0,0.0,81,0.00,,,0.00,0,HR-IXPWINDi_r2_v1.2.,2013-08-23 05:08:00,
2013-08-22 22:13:00,59.4,53.8,29.82,South,186,0.0,0.0,82,0.00,,,0.00,0,HR-IXPWINDi_r2_v1.2.,2013-08-23 05:13:00,
2013-08-22 22:18:00,59.1,53.9,29.82,South,186,0.0,0.0,83,0.00,,,0.00,0,HR-IXPWINDi_r2_v1.2.,2013-08-23 05:18:00,
2013-08-22 22:23:00,58.8,53.6,29.82,South,186,0.0,0.0,83,0.00,,,0.00,0,HR-IXPWINDi_r2_v1.2.,2013-08-23 05:23:00,
2013-08-22 22:29:00,58.6,53.7,29.82,South,186,0.0,0.0,84,0.00,,,0.00,0,HR-IXPWINDi_r2_v1.2.,2013-08-23 05:29:00,
2013-08-22 22:34:00,58.7,53.5,29.82,South,186,0.0,1.0,83,0.00,,,0.00,0,HR-IXPWINDi_r2_v1.2.,2013-08-23 05:34:00,
2013-08-22 22:39:00,58.7,53.8,29.82,South,186,0.0,1.0,84,0.00,,,0.00,0,HR-IXPWINDi_r2_v1.2.,2013-08-23 05:39:00,
2013-08-22 22:44:00,59.1,54.2,29.82,South,186,0.0,1.0,84,0.00,,,0.00,0,HR-IXPWINDi_r2_v1.2.,2013-08-23 05:44:00,
2013-08-22 22:49:00,59.9,54.3,29.82,WSW,246,1.0,2.0,82,0.00,,,0.00,0,HR-IXPWINDi_r2_v1.2.,2013-08-23 05:49:00,
2013-08-22 22:54:00,60.6,54.3,29.82,NW,304,2.0,3.0,80,0.00,,,0.00,0,HR-IXPWINDi_r2_v1.2.,2013-08-23 05:54:00,
2013-08-22 23:00:00,61.2,54.2,29.82,NW,304,0.0,3.0,78,0.00,,,0.00,0,HR-IXPWINDi_r2_v1.2.,2013-08-23 06:00:00,
2013-08-22 23:05:00,60.5,53.5,29.82,NW,304,0.0,2.0,78,0.00,,,0.00,0,HR-IXPWINDi_r2_v1.2.,2013-08-23 06:05:00,
2013-08-22 23:10:00,59.7,53.5,29.82,NW,304,0.0,1.0,80,0.00,,,0.00,0,HR-IXPWINDi_r2_v1.2.,2013-08-23 06:10:00,
2013-08-22 23:15:00,59.2,53.3,29.82,NW,304,0.0,2.0,81,0.00,,,0.00,0,HR-IXPWINDi_r2_v1.2.,2013-08-23 06:15:00,
2013-08-22 23:20:00,58.9,53.0,29.82,NW,304,0.0,2.0,81,0.00,,,0.00,0,HR-IXPWINDi_r2_v1.2.,2013-08-23 06:20:00,
2013-08-22 23:25:00,58.8,52.9,29.82,NW,304,0.0,1.0,81,0.00,,,0.00,0,HR-IXPWINDi_r2_v1.2.,2013-08-23 06:25:00,
2013-08-22 23:31:00,58.7,53.2,29.82,NW,304,0.0,1.0,82,0.00,,,0.00,0,HR-IXPWINDi_r2_v1.2.,2013-08-23 06:31:00,
2013-08-22 23:36:00,59.1,53.2,29.82,NW,304,0.0,1.0,81,0.00,,,0.00,0,HR-IXPWINDi_r2_v1.2.,2013-08-23 06:36:00,
2013-08-22 23:41:00,58.9,53.0,29.82,NW,304,0.0,1.0,81,0.00,,,0.00,0,HR-IXPWINDi_r2_v1.2.,2013-08-23 06:41:00,
2013-08-22 23:46:00,58.6,52.7,29.83,NW,304,0.0,0.0,81,0.00,,,0.00,0,HR-IXPWINDi_r2_v1.2.,2013-08-23 06:46:00,
2013-08-22 23:52:00,58.4,52.5,29.83,NW,304,0.0,0.0,81,0.00,,,0.00,0,HR-IXPWINDi_r2_v1.2.,2013-08-23 06:52:00,
2013-08-22 23:57:00,58.4,52.5,29.82,NW,304,0.0,3.0,81,0.00,,,0.00,0,HR-IXPWINDi_r2_v1.2.,2013-08-23 06:57:00,